Time;durP1;ratioP1;P1;durP2;ratioP2;P2;SDS_P1;SDS_P2;PMS_P1;PMS_P2;Temp;Humidity;BMP_temperature;BMP_pressure;BME280_temperature;BME280_humidity;BME280_pressure;Samples;Min_cycle;Max_cycle;Signal;HPM_P1;HPM_P2
2023/12/27 00:02:23;;;;;;;4.05;2.03;;;;;;;8.78;100.00;100714.53;5607929;31;34024;-71
2023/12/27 00:05:26;;;;;;;4.07;2.15;;;;;;;8.80;100.00;100704.66;5608732;31;34114;-71
2023/12/27 00:08:37;;;;;;;1.92;1.20;;;;;;;8.87;100.00;100711.00;5608020;31;35214;-71
2023/12/27 00:11:43;;;;;;;2.20;1.00;;;;;;;8.97;100.00;100711.78;5609020;31;34117;-70
2023/12/27 00:14:47;;;;;;;1.98;0.93;;;;;;;8.95;100.00;100714.59;5608523;31;34219;-71
2023/12/27 00:17:51;;;;;;;1.80;0.90;;;;;;;8.82;100.00;100729.97;5608281;31;35058;-71
2023/12/27 00:20:54;;;;;;;2.03;0.80;;;;;;;8.86;100.00;100722.59;5608512;31;35358;-70
2023/12/27 00:23:59;;;;;;;2.05;0.80;;;;;;;8.98;100.00;100730.16;5608561;31;33994;-70
2023/12/27 00:27:03;;;;;;;2.50;1.00;;;;;;;8.84;100.00;100725.37;5608119;31;34128;-71
2023/12/27 00:30:07;;;;;;;1.60;0.90;;;;;;;8.81;100.00;100743.34;5608884;31;33931;-72
2023/12/27 00:33:13;;;;;;;3.30;1.12;;;;;;;8.78;100.00;100749.75;5608569;31;33980;-71
2023/12/27 00:36:20;;;;;;;2.17;1.20;;;;;;;8.67;100.00;100758.72;5608505;31;34883;-72
2023/12/27 00:39:24;;;;;;;2.05;0.90;;;;;;;8.60;100.00;100765.59;5608784;31;34637;-71
2023/12/27 00:42:28;;;;;;;2.33;1.10;;;;;;;8.52;100.00;100756.72;5608369;31;35579;-71
2023/12/27 00:45:32;;;;;;;3.25;1.25;;;;;;;8.49;100.00;100763.09;5607578;31;34136;-71
2023/12/27 00:48:36;;;;;;;1.95;0.90;;;;;;;8.37;100.00;100760.81;5607729;31;34274;-72
2023/12/27 00:51:44;;;;;;;1.83;1.00;;;;;;;8.44;100.00;100768.00;5607889;31;34117;-71
2023/12/27 00:54:47;;;;;;;3.22;1.20;;;;;;;8.31;100.00;100761.38;5608334;31;34143;-72
2023/12/27 00:57:50;;;;;;;2.22;1.00;;;;;;;8.34;100.00;100761.91;5607441;31;34143;-72
2023/12/27 01:00:53;;;;;;;1.27;0.80;;;;;;;8.22;100.00;100766.53;5608189;31;34723;-71
2023/12/27 01:03:56;;;;;;;2.17;1.15;;;;;;;8.28;100.00;100779.13;5607336;31;34624;-71
2023/12/27 01:07:01;;;;;;;2.37;1.10;;;;;;;8.27;100.00;100787.22;5608336;31;34823;-71
2023/12/27 01:10:05;;;;;;;2.83;1.10;;;;;;;8.45;100.00;100793.47;5607322;31;34653;-71
2023/12/27 01:13:09;;;;;;;3.53;1.27;;;;;;;8.49;100.00;100794.84;5607602;31;34380;-70
2023/12/27 01:16:14;;;;;;;2.45;0.95;;;;;;;8.62;100.00;100794.50;5608064;31;33995;-71
2023/12/27 01:19:18;;;;;;;3.10;1.10;;;;;;;8.50;100.00;100808.91;5607708;31;34184;-72
2023/12/27 01:22:22;;;;;;;4.45;1.48;;;;;;;8.64;100.00;100814.56;5607190;31;34173;-71
2023/12/27 01:25:28;;;;;;;2.17;1.10;;;;;;;8.64;100.00;100811.06;5607920;31;33957;-71
2023/12/27 01:28:44;;;;;;;2.60;1.17;;;;;;;8.61;100.00;100825.44;5607170;31;34104;-71
2023/12/27 01:31:47;;;;;;;2.53;1.12;;;;;;;8.42;100.00;100836.06;5607605;31;34028;-71
2023/12/27 01:34:50;;;;;;;2.58;1.00;;;;;;;8.31;100.00;100833.56;5607669;31;34723;-71
2023/12/27 01:37:55;;;;;;;2.97;1.10;;;;;;;8.34;100.00;100833.28;5607743;31;34157;-72
2023/12/27 01:40:59;;;;;;;3.83;1.20;;;;;;;8.23;100.00;100839.53;5607529;31;34694;-72
2023/12/27 01:44:06;;;;;;;1.73;1.10;;;;;;;8.24;100.00;100825.34;5607499;31;34664;-71
2023/12/27 01:47:10;;;;;;;2.03;1.10;;;;;;;8.18;100.00;100830.37;5607424;31;34054;-71
2023/12/27 01:50:20;;;;;;;2.33;1.10;;;;;;;8.11;100.00;100827.44;5607255;31;34410;-72
2023/12/27 01:53:25;;;;;;;2.78;1.20;;;;;;;8.06;100.00;100832.31;5607357;31;34654;-71
2023/12/27 01:56:28;;;;;;;4.18;1.30;;;;;;;7.97;100.00;100829.69;5607294;31;34183;-71
2023/12/27 01:59:32;;;;;;;3.42;1.15;;;;;;;7.90;100.00;100823.28;5607589;31;34000;-71
2023/12/27 02:02:38;;;;;;;2.60;1.02;;;;;;;7.95;100.00;100831.62;5607227;31;34099;-71
2023/12/27 02:05:42;;;;;;;2.53;1.30;;;;;;;7.85;100.00;100827.19;5606381;31;34085;-71
2023/12/27 02:08:45;;;;;;;4.35;1.23;;;;;;;7.87;100.00;100827.06;5607146;31;34907;-71
2023/12/27 02:11:49;;;;;;;3.33;1.17;;;;;;;7.84;100.00;100832.63;5607015;31;33797;-71
2023/12/27 02:14:57;;;;;;;2.58;1.20;;;;;;;7.87;100.00;100845.53;5606213;31;34119;-72
2023/12/27 02:18:06;;;;;;;1.65;1.00;;;;;;;7.81;100.00;100841.66;5606816;31;35141;-71
2023/12/27 02:21:09;;;;;;;2.10;1.20;;;;;;;7.89;100.00;100843.56;5606660;31;34295;-71
2023/12/27 02:24:16;;;;;;;2.00;0.93;;;;;;;7.92;100.00;100859.16;5607645;31;33616;-71
2023/12/27 02:27:18;;;;;;;2.85;1.00;;;;;;;7.98;100.00;100855.13;5609751;31;33995;-71
2023/12/27 02:30:23;;;;;;;2.95;1.10;;;;;;;8.06;100.00;100844.69;5609675;31;33977;-71
2023/12/27 02:33:26;;;;;;;2.12;1.00;;;;;;;8.09;100.00;100849.69;5609625;31;32561;-71
2023/12/27 02:36:30;;;;;;;2.55;1.12;;;;;;;8.03;100.00;100853.75;5609501;31;34097;-71
2023/12/27 02:39:33;;;;;;;3.83;1.15;;;;;;;8.03;100.00;100845.00;5609791;31;35503;-71
2023/12/27 02:42:37;;;;;;;4.10;1.20;;;;;;;7.96;100.00;100860.56;5609633;31;34106;-71
2023/12/27 02:45:40;;;;;;;2.33;1.00;;;;;;;7.94;100.00;100859.03;5609510;31;34039;-71
2023/12/27 02:48:43;;;;;;;2.03;1.10;;;;;;;7.91;100.00;100854.84;5609474;31;34023;-71
2023/12/27 02:51:47;;;;;;;2.53;1.10;;;;;;;7.82;100.00;100853.87;5608659;31;34917;-71
2023/12/27 02:54:50;;;;;;;2.22;1.05;;;;;;;7.84;100.00;100864.31;5609420;31;34042;-71
2023/12/27 02:57:53;;;;;;;2.62;0.98;;;;;;;7.68;100.00;100862.22;5609371;31;35279;-72
2023/12/27 03:00:56;;;;;;;2.60;1.17;;;;;;;7.52;100.00;100861.06;5609740;31;34608;-71
2023/12/27 03:04:00;;;;;;;1.83;0.90;;;;;;;7.45;100.00;100866.06;5608984;31;34749;-71
2023/12/27 03:07:03;;;;;;;4.47;1.00;;;;;;;7.33;100.00;100862.69;5609289;31;33972;-71
2023/12/27 03:10:07;;;;;;;2.37;1.10;;;;;;;7.36;100.00;100867.69;5608657;31;34807;-71
2023/12/27 03:13:10;;;;;;;2.25;1.10;;;;;;;7.40;100.00;100869.12;5609317;31;34783;-71
2023/12/27 03:16:13;;;;;;;3.12;1.12;;;;;;;7.22;100.00;100865.44;5609008;31;34049;-71
2023/12/27 03:19:22;;;;;;;2.17;0.98;;;;;;;7.38;100.00;100863.13;5609278;31;34752;-71
2023/12/27 03:22:28;;;;;;;2.58;1.02;;;;;;;7.32;100.00;100866.31;5608992;31;35029;-71
2023/12/27 03:25:32;;;;;;;2.85;0.82;;;;;;;7.47;100.00;100874.69;5609269;31;34826;-71
2023/12/27 03:28:38;;;;;;;1.90;1.00;;;;;;;7.48;100.00;100886.91;5608543;31;34127;-71
2023/12/27 03:31:44;;;;;;;2.33;1.02;;;;;;;7.37;100.00;100887.00;5609370;31;34110;-71
2023/12/27 03:34:46;;;;;;;2.65;1.10;;;;;;;7.11;100.00;100877.91;5609132;31;35038;-71
2023/12/27 03:37:52;;;;;;;2.03;1.05;;;;;;;7.33;100.00;100888.25;5609159;31;35216;-72
2023/12/27 03:40:55;;;;;;;3.05;1.00;;;;;;;7.37;100.00;100906.31;5609028;31;34025;-71
2023/12/27 03:43:59;;;;;;;1.65;0.90;;;;;;;7.30;100.00;100899.09;5609050;31;34964;-71
2023/12/27 03:47:02;;;;;;;2.25;1.02;;;;;;;7.10;100.00;100900.00;5608959;31;34019;-71
2023/12/27 03:50:07;;;;;;;3.25;1.00;;;;;;;6.94;100.00;100898.66;5608939;31;34699;-71
2023/12/27 03:53:13;;;;;;;2.67;1.10;;;;;;;7.09;100.00;100911.50;5607941;31;34397;-71
2023/12/27 03:56:20;;;;;;;2.23;1.10;;;;;;;7.06;100.00;100907.34;5608839;31;33938;-71
2023/12/27 03:59:24;;;;;;;2.20;1.10;;;;;;;7.14;100.00;100902.22;5608857;31;34242;-71
2023/12/27 04:02:29;;;;;;;3.20;1.10;;;;;;;6.99;100.00;100909.66;5608763;31;34278;-72
2023/12/27 04:05:33;;;;;;;3.10;1.10;;;;;;;6.92;100.00;100913.78;5608127;31;33475;-71
2023/12/27 04:08:36;;;;;;;3.67;1.10;;;;;;;6.83;100.00;100913.72;5608218;31;35172;-71
2023/12/27 04:11:45;;;;;;;3.30;0.95;;;;;;;6.78;100.00;100916.75;5609142;31;34259;-71
2023/12/27 04:14:48;;;;;;;2.33;1.12;;;;;;;6.68;100.00;100921.13;5608734;31;34000;-70
2023/12/27 04:17:52;;;;;;;2.10;1.10;;;;;;;6.45;100.00;100915.16;5608487;31;34253;-70
2023/12/27 04:20:55;;;;;;;3.37;1.20;;;;;;;6.34;100.00;100925.75;5608686;31;34769;-71
2023/12/27 04:24:00;;;;;;;2.05;1.20;;;;;;;6.43;100.00;100924.19;5608470;31;35006;-71
2023/12/27 04:27:05;;;;;;;2.67;1.10;;;;;;;6.67;100.00;100924.75;5608768;31;32688;-71
2023/12/27 04:30:09;;;;;;;2.80;1.00;;;;;;;6.68;100.00;100928.25;5608596;31;34724;-70
2023/12/27 04:33:12;;;;;;;3.65;1.05;;;;;;;6.94;100.00;100934.75;5608947;31;35054;-71
2023/12/27 04:36:16;;;;;;;3.53;1.02;;;;;;;6.74;100.00;100946.16;5608470;31;34215;-72
2023/12/27 04:39:19;;;;;;;3.83;1.10;;;;;;;6.71;100.00;100943.78;5608504;31;34258;-71
2023/12/27 04:42:24;;;;;;;2.80;1.10;;;;;;;6.58;100.00;100951.06;5608450;31;34692;-71
2023/12/27 04:45:27;;;;;;;2.25;1.10;;;;;;;6.61;100.00;100943.72;5608612;31;33945;-71
2023/12/27 04:48:33;;;;;;;2.62;1.00;;;;;;;6.73;100.00;100949.78;5607400;31;34785;-71
2023/12/27 04:51:38;;;;;;;2.60;1.00;;;;;;;6.93;100.00;100952.37;5607712;31;34128;-71
2023/12/27 04:54:42;;;;;;;2.87;0.88;;;;;;;7.05;100.00;100947.03;5608222;31;35038;-71
2023/12/27 04:57:45;;;;;;;2.42;0.90;;;;;;;7.07;100.00;100959.09;5607490;31;34358;-71
2023/12/27 05:00:49;;;;;;;4.75;1.10;;;;;;;7.18;100.00;100958.19;5608287;31;34339;-71
2023/12/27 05:03:52;;;;;;;4.45;1.08;;;;;;;7.11;100.00;100967.62;5608286;31;33954;-72
2023/12/27 05:06:56;;;;;;;2.95;1.10;;;;;;;7.17;100.00;100972.34;5608192;31;34105;-72
2023/12/27 05:09:59;;;;;;;2.42;1.10;;;;;;;7.16;100.00;100971.53;5608115;31;33639;-72
2023/12/27 05:13:02;;;;;;;3.83;1.00;;;;;;;7.27;100.00;100981.16;5608105;31;34852;-72
2023/12/27 05:16:16;;;;;;;3.08;1.10;;;;;;;7.22;100.00;100978.91;5608334;31;34108;-71
2023/12/27 05:19:19;;;;;;;3.47;1.10;;;;;;;7.18;100.00;100995.12;5608091;31;34890;-71
2023/12/27 05:22:22;;;;;;;1.60;0.98;;;;;;;7.10;100.00;100992.31;5607226;31;35257;-72
2023/12/27 05:25:25;;;;;;;3.45;1.00;;;;;;;7.01;100.00;101001.88;5606989;31;34274;-72
2023/12/27 05:28:29;;;;;;;3.45;1.10;;;;;;;6.95;100.00;100999.72;5607848;31;34200;-72
2023/12/27 05:31:32;;;;;;;2.12;1.20;;;;;;;7.02;100.00;101005.34;5607834;31;34984;-72
2023/12/27 05:34:35;;;;;;;2.00;0.93;;;;;;;6.89;100.00;101016.06;5607016;31;34791;-72
2023/12/27 05:37:38;;;;;;;3.40;1.20;;;;;;;6.86;100.00;101014.53;5606947;31;34038;-72
2023/12/27 05:40:41;;;;;;;2.20;1.00;;;;;;;6.75;100.00;101008.47;5607521;31;34177;-72
2023/12/27 05:43:45;;;;;;;1.65;0.82;;;;;;;6.58;100.00;101009.06;5607697;31;33696;-72
2023/12/27 05:46:47;;;;;;;3.33;1.20;;;;;;;6.46;100.00;101024.91;5606734;31;34718;-71
2023/12/27 05:49:50;;;;;;;1.92;1.00;;;;;;;6.56;100.00;101022.34;5607560;31;33932;-71
2023/12/27 05:52:54;;;;;;;4.72;1.12;;;;;;;6.67;100.00;101029.38;5607834;31;34532;-71
2023/12/27 05:55:57;;;;;;;2.30;1.10;;;;;;;6.45;100.00;101033.78;5607229;31;34319;-71
2023/12/27 05:59:01;;;;;;;2.05;1.00;;;;;;;6.23;100.00;101044.41;5607955;31;33966;-71
2023/12/27 06:02:06;;;;;;;2.70;1.20;;;;;;;5.98;100.00;101042.88;5610183;31;34038;-71
2023/12/27 06:05:09;;;;;;;2.42;1.00;;;;;;;5.75;100.00;101057.00;5609937;31;34132;-71
2023/12/27 06:08:18;;;;;;;2.60;1.10;;;;;;;5.63;100.00;101052.69;5609839;31;34258;-71
2023/12/27 06:11:23;;;;;;;3.60;1.30;;;;;;;5.51;100.00;101056.28;5609835;31;34311;-71
2023/12/27 06:14:26;;;;;;;4.10;1.27;;;;;;;5.43;100.00;101067.37;5609130;31;34024;-71
2023/12/27 06:17:39;;;;;;;4.45;1.25;;;;;;;5.51;100.00;101066.81;5609657;31;34608;-71
2023/12/27 06:20:43;;;;;;;2.45;1.20;;;;;;;5.50;100.00;101071.22;5609789;31;34809;-71
2023/12/27 06:23:46;;;;;;;4.50;1.20;;;;;;;5.65;100.00;101070.03;5609801;31;34081;-72
2023/12/27 06:26:49;;;;;;;2.55;1.05;;;;;;;5.96;100.00;101070.28;5609405;31;35031;-71
2023/12/27 06:29:56;;;;;;;3.65;1.30;;;;;;;6.06;100.00;101079.97;5609686;31;34116;-71
2023/12/27 06:33:01;;;;;;;5.55;1.70;;;;;;;6.09;100.00;101085.03;5608847;31;33655;-71
2023/12/27 06:36:06;;;;;;;5.32;1.40;;;;;;;6.14;100.00;101094.34;5595682;31;34045;-71
2023/12/27 06:39:09;;;;;;;4.10;1.60;;;;;;;6.22;100.00;101100.66;5609846;31;34113;-71
2023/12/27 06:42:13;;;;;;;5.37;1.40;;;;;;;6.11;100.00;101093.63;5609796;31;34117;-72
2023/12/27 06:45:17;;;;;;;2.50;1.20;;;;;;;6.03;100.00;101117.09;5609484;31;34253;-70
2023/12/27 06:48:21;;;;;;;4.78;1.20;;;;;;;6.02;100.00;101133.03;5609222;31;33990;-71
2023/12/27 06:51:25;;;;;;;3.58;1.80;;;;;;;6.02;100.00;101127.75;5609469;31;34285;-71
2023/12/27 06:54:29;;;;;;;5.75;1.58;;;;;;;5.96;100.00;101131.69;5609506;31;34715;-71
2023/12/27 06:57:32;;;;;;;3.58;1.40;;;;;;;6.01;100.00;101139.22;5609236;31;34354;-71
2023/12/27 07:00:38;;;;;;;5.60;1.50;;;;;;;5.97;100.00;101145.72;5609396;31;34565;-72
2023/12/27 07:03:41;;;;;;;4.65;1.60;;;;;;;5.91;100.00;101143.53;5609345;31;34426;-71
2023/12/27 07:06:45;;;;;;;4.82;1.70;;;;;;;5.72;100.00;101144.09;5608732;31;34767;-71
2023/12/27 07:09:48;;;;;;;5.60;1.58;;;;;;;5.67;100.00;101149.72;5608742;31;34463;-70
2023/12/27 07:12:54;;;;;;;5.75;1.92;;;;;;;5.55;100.00;101149.81;5609299;31;34756;-71
2023/12/27 07:15:58;;;;;;;4.28;1.40;;;;;;;5.60;100.00;101159.06;5609092;31;34797;-71
2023/12/27 07:19:03;;;;;;;3.22;1.52;;;;;;;5.70;100.00;101159.19;5609336;31;34086;-71
2023/12/27 07:22:07;;;;;;;4.35;1.45;;;;;;;5.77;100.00;101178.81;5608428;31;34801;-71
2023/12/27 07:25:10;;;;;;;3.72;1.45;;;;;;;6.04;100.00;101176.72;5608465;31;34257;-72
2023/12/27 07:28:17;;;;;;;3.62;1.77;;;;;;;6.09;100.00;101174.56;5609169;31;34455;-70
2023/12/27 07:31:21;;;;;;;3.72;1.52;;;;;;;6.21;100.00;101180.66;5608763;31;33182;-71
2023/12/27 07:34:25;;;;;;;4.10;1.77;;;;;;;6.31;100.00;101178.16;5608498;31;34028;-69
2023/12/27 07:37:31;;;;;;;3.28;1.55;;;;;;;6.42;100.00;101184.25;5609047;31;34038;-71
2023/12/27 07:40:34;;;;;;;4.68;1.60;;;;;;;6.37;100.00;101196.13;5609055;31;34042;-70
2023/12/27 07:43:38;;;;;;;4.65;1.58;;;;;;;6.40;100.00;101193.22;5595264;31;34081;-71
2023/12/27 07:46:44;;;;;;;4.87;1.67;;;;;;;6.46;100.00;101201.50;5609017;31;35111;-70
2023/12/27 07:49:47;;;;;;;3.25;1.55;;;;;;;6.50;100.00;101202.94;5609198;31;35128;-71
2023/12/27 07:52:52;;;;;;;2.78;1.30;;;;;;;6.50;100.00;101197.66;5609052;31;34023;-72
2023/12/27 07:55:55;;;;;;;6.43;1.92;;;;;;;6.60;100.00;101184.59;5608660;31;34746;-72
2023/12/27 07:58:58;;;;;;;5.07;1.55;;;;;;;6.83;100.00;101188.00;5608778;31;34383;-71
2023/12/27 08:02:07;;;;;;;7.28;1.67;;;;;;;6.98;100.00;101203.44;5608944;31;32548;-72
2023/12/27 08:05:14;;;;;;;4.78;1.55;;;;;;;7.25;100.00;101220.63;5608115;31;34104;-72
2023/12/27 08:08:17;;;;;;;5.62;1.70;;;;;;;7.48;100.00;101222.19;5609040;31;34706;-72
2023/12/27 08:11:23;;;;;;;2.03;1.23;;;;;;;7.59;100.00;101227.44;5609122;31;34015;-71
2023/12/27 08:14:26;;;;;;;4.75;1.58;;;;;;;7.71;100.00;101228.19;5608684;31;34167;-71
2023/12/27 08:17:30;;;;;;;4.95;1.85;;;;;;;7.76;100.00;101229.47;5608429;31;34029;-71
2023/12/27 08:20:33;;;;;;;5.03;1.52;;;;;;;7.82;100.00;101233.41;5608571;31;34558;-71
2023/12/27 08:23:39;;;;;;;2.50;1.30;;;;;;;7.82;100.00;101242.19;5607487;31;35191;-71
2023/12/27 08:26:43;;;;;;;4.68;1.60;;;;;;;7.79;100.00;101231.03;5607978;31;34120;-71
2023/12/27 08:29:46;;;;;;;3.30;1.37;;;;;;;7.82;100.00;101242.19;5608644;31;34203;-72
2023/12/27 08:32:49;;;;;;;4.97;1.40;;;;;;;7.70;100.00;101248.47;5608719;31;35456;-72
2023/12/27 08:35:56;;;;;;;5.95;1.58;;;;;;;7.83;100.00;101253.59;5607975;31;32747;-71
2023/12/27 08:39:00;;;;;;;3.78;1.50;;;;;;;7.79;100.00;101263.56;5608595;31;34325;-71
2023/12/27 08:42:03;;;;;;;4.53;1.45;;;;;;;7.88;100.00;101275.19;5608686;31;35198;-72
2023/12/27 08:45:06;;;;;;;4.68;1.80;;;;;;;7.85;100.00;101276.25;5608046;31;33971;-71
2023/12/27 08:48:10;;;;;;;3.78;1.48;;;;;;;7.85;100.00;101284.19;5607481;31;34208;-72
2023/12/27 08:51:13;;;;;;;3.90;1.60;;;;;;;7.91;100.00;101295.19;5594624;31;34043;-72
2023/12/27 08:54:17;;;;;;;2.62;1.42;;;;;;;8.10;100.00;101311.19;5594871;31;34789;-72
2023/12/27 08:57:20;;;;;;;5.93;1.58;;;;;;;8.16;100.00;101310.69;5608390;31;34092;-72
2023/12/27 09:00:26;;;;;;;5.78;1.65;;;;;;;8.19;100.00;101313.06;5608359;31;34857;-72
2023/12/27 09:03:30;;;;;;;4.22;1.70;;;;;;;8.28;100.00;101317.56;5607645;31;34814;-72
2023/12/27 09:06:37;;;;;;;3.05;1.62;;;;;;;8.32;100.00;101326.13;5607557;31;35030;-70
2023/12/27 09:09:41;;;;;;;5.55;1.30;;;;;;;8.41;100.00;101328.81;5608258;31;34742;-71
2023/12/27 09:12:44;;;;;;;5.55;1.58;;;;;;;8.57;100.00;101338.91;5608010;31;34039;-70
2023/12/27 09:15:48;;;;;;;4.45;1.67;;;;;;;8.60;100.00;101333.38;5607139;31;34063;-71
2023/12/27 09:18:51;;;;;;;3.53;1.60;;;;;;;8.68;100.00;101344.97;5607533;31;34166;-71
2023/12/27 09:21:54;;;;;;;4.70;1.50;;;;;;;8.92;100.00;101347.28;5607820;31;34611;-72
2023/12/27 09:24:57;;;;;;;4.65;1.45;;;;;;;9.00;100.00;101346.63;5607860;31;33974;-72
2023/12/27 09:28:00;;;;;;;5.15;1.67;;;;;;;9.10;100.00;101350.97;5607917;31;34077;-71
2023/12/27 09:31:04;;;;;;;6.82;1.80;;;;;;;9.14;100.00;101351.56;5607617;31;34275;-72
2023/12/27 09:34:08;;;;;;;5.90;1.60;;;;;;;9.21;100.00;101357.12;5607337;31;34524;-72
2023/12/27 09:37:12;;;;;;;5.07;1.70;;;;;;;9.09;100.00;101359.06;5606918;31;34085;-71
2023/12/27 09:40:16;;;;;;;4.07;1.40;;;;;;;8.95;100.00;101357.62;5607394;31;34804;-72
2023/12/27 09:43:23;;;;;;;5.35;1.60;;;;;;;8.84;100.00;101359.50;5606420;31;34313;-70
2023/12/27 09:46:29;;;;;;;4.37;1.48;;;;;;;8.70;100.00;101344.84;5607663;31;34053;-71
2023/12/27 09:49:33;;;;;;;6.37;1.40;;;;;;;8.68;100.00;101344.12;5607426;31;34069;-71
2023/12/27 09:52:43;;;;;;;3.00;1.37;;;;;;;8.76;100.00;101348.75;5607439;31;34267;-70
2023/12/27 09:55:51;;;;;;;4.78;1.60;;;;;;;8.72;100.00;101348.16;5606513;31;34077;-71
2023/12/27 09:59:00;;;;;;;5.78;1.50;;;;;;;8.66;100.00;101357.50;5606315;31;34410;-73
2023/12/27 10:02:13;;;;;;;5.60;1.67;;;;;;;8.76;100.00;101349.59;5607061;31;34291;-71
2023/12/27 10:05:22;;;;;;;4.45;1.50;;;;;;;8.70;100.00;101350.12;5593971;31;34056;-71
2023/12/27 10:08:25;;;;;;;8.10;1.83;;;;;;;8.56;100.00;101337.25;5607120;31;33856;-71
2023/12/27 10:11:33;;;;;;;3.60;1.50;;;;;;;8.50;100.00;101341.25;5607040;31;34436;-71
2023/12/27 10:14:37;;;;;;;2.60;1.35;;;;;;;8.45;100.00;101335.50;5606091;31;33752;-72
2023/12/27 10:17:40;;;;;;;6.20;1.92;;;;;;;8.32;100.00;101332.25;5605966;31;32959;-72
2023/12/27 10:20:46;;;;;;;3.95;1.98;;;;;;;8.40;100.00;101336.88;5606836;31;34744;-71
2023/12/27 10:23:50;;;;;;;4.62;1.65;;;;;;;8.50;100.00;101340.41;5606507;31;34096;-71
2023/12/27 10:26:57;;;;;;;6.97;1.92;;;;;;;8.54;100.00;101339.19;5606599;31;34086;-72
2023/12/27 10:30:04;;;;;;;4.47;1.35;;;;;;;8.44;100.00;101335.63;5606431;31;34094;-71
2023/12/27 10:33:07;;;;;;;5.03;1.50;;;;;;;8.56;100.00;101339.91;5606988;31;34225;-72
2023/12/27 10:36:17;;;;;;;4.97;1.70;;;;;;;8.64;100.00;101340.91;5606736;31;34684;-72
2023/12/27 10:39:22;;;;;;;3.85;1.50;;;;;;;8.65;100.00;101334.66;5606410;31;35136;-71
2023/12/27 10:42:28;;;;;;;5.78;1.70;;;;;;;8.54;100.00;101328.59;5606612;31;34298;-71
2023/12/27 10:45:31;;;;;;;7.32;1.73;;;;;;;8.63;100.00;101326.00;5607759;31;34983;-72
2023/12/27 10:48:39;;;;;;;5.05;1.65;;;;;;;8.66;100.00;101338.13;5609380;31;33879;-72
2023/12/27 10:51:43;;;;;;;5.97;1.73;;;;;;;8.67;100.00;101322.13;5609092;31;34094;-71
2023/12/27 10:54:51;;;;;;;7.25;1.77;;;;;;;8.74;100.00;101319.78;5608767;31;34060;-71
2023/12/27 10:57:56;;;;;;;4.60;1.70;;;;;;;8.64;100.00;101324.19;5608676;31;34087;-71
2023/12/27 11:01:08;;;;;;;4.32;1.60;;;;;;;8.74;100.00;101322.44;5608575;31;34245;-71
2023/12/27 11:04:13;;;;;;;4.35;1.70;;;;;;;8.78;100.00;101318.53;5608614;31;34150;-72
2023/12/27 11:07:20;;;;;;;5.18;1.92;;;;;;;8.80;100.00;101321.06;5609491;31;34139;-71
2023/12/27 11:10:30;;;;;;;3.65;1.50;;;;;;;8.81;100.00;101307.69;5608871;31;34412;-72
2023/12/27 11:13:40;;;;;;;4.18;1.60;;;;;;;8.86;100.00;101302.03;5608565;31;35128;-72
2023/12/27 11:16:48;;;;;;;5.70;1.65;;;;;;;8.89;100.00;101297.28;5609175;31;34164;-72
2023/12/27 11:19:54;;;;;;;;;;;;;;;9.03;100.00;101304.84;5609354;31;34057;-71
2023/12/27 11:22:57;;;;;;;5.60;1.87;;;;;;;9.10;100.00;101295.38;5609458;31;33524;-71
2023/12/27 11:26:02;;;;;;;6.60;1.98;;;;;;;9.19;100.00;101291.09;5609405;31;34792;-72
2023/12/27 11:29:11;;;;;;;6.95;1.75;;;;;;;9.32;100.00;101290.81;5609291;31;34715;-72
2023/12/27 11:32:15;;;;;;;6.68;1.80;;;;;;;9.43;100.00;101293.34;5608986;31;34011;-70
2023/12/27 11:35:28;;;;;;;4.53;1.33;;;;;;;9.55;99.92;101279.00;5608831;31;34213;-70
2023/12/27 11:38:32;;;;;;;7.90;1.90;;;;;;;9.68;96.12;101286.69;5608649;31;34063;-71
2023/12/27 11:41:37;;;;;;;5.85;1.73;;;;;;;9.52;95.09;101284.56;5609051;31;33661;-71
2023/12/27 11:44:56;;;;;;;5.07;1.45;;;;;;;9.44;96.43;101279.97;5608124;31;33645;-71
2023/12/27 11:48:02;;;;;;;;;;;;;;;9.66;94.55;101273.56;5609411;31;34096;-71
2023/12/27 11:51:35;;;;;;;11.10;2.67;;;;;;;9.75;95.28;101277.19;5608820;31;35071;-71
2023/12/27 11:54:39;;;;;;;4.80;1.50;;;;;;;9.84;93.61;101276.34;5608973;31;34108;-71
2023/12/27 11:57:43;;;;;;;4.28;1.42;;;;;;;9.94;89.21;101266.56;5608792;31;34040;-73
2023/12/27 12:00:46;;;;;;;5.85;1.70;;;;;;;9.94;89.37;101266.56;5608759;31;34790;-71
2023/12/27 12:04:32;;;;;;;6.75;1.58;;;;;;;9.91;90.66;101266.84;5608848;31;33988;-72
2023/12/27 12:08:25;;;;;;;4.15;1.65;;;;;;;9.78;90.39;101268.97;5609085;31;34222;-70
2023/12/27 12:11:28;;;;;;;5.20;1.45;;;;;;;10.10;88.60;101272.13;5603162;31;34083;-72
2023/12/27 12:14:31;;;;;;;6.05;1.65;;;;;;;10.21;85.70;101274.63;5608756;31;34071;-71
2023/12/27 12:17:36;;;;;;;4.70;1.55;;;;;;;10.27;86.63;101271.37;5608672;31;34139;-73
2023/12/27 12:20:42;;;;;;;3.40;1.27;;;;;;;10.43;84.68;101274.28;5608479;31;35126;-72
2023/12/27 12:23:47;;;;;;;5.70;1.30;;;;;;;10.49;81.95;101272.03;5608050;31;34119;-71
2023/12/27 12:26:50;;;;;;;5.93;1.60;;;;;;;10.43;78.30;101265.47;5608023;31;34083;-71
2023/12/27 12:29:53;;;;;;;5.07;1.20;;;;;;;10.30;77.79;101251.72;5608949;31;34093;-72
2023/12/27 12:32:59;;;;;;;3.85;1.40;;;;;;;10.28;77.96;101254.50;5608435;31;34519;-73
2023/12/27 12:36:03;;;;;;;5.03;1.20;;;;;;;10.39;77.20;101264.09;5608548;31;34054;-72
2023/12/27 12:39:07;;;;;;;5.50;1.35;;;;;;;10.55;75.11;101255.53;5608447;31;34204;-72
2023/12/27 12:42:12;;;;;;;5.03;1.30;;;;;;;10.46;73.36;101266.03;5608674;31;34102;-71
2023/12/27 12:45:16;;;;;;;5.10;1.30;;;;;;;10.28;73.50;101265.13;5608386;31;33991;-72
2023/12/27 12:48:21;;;;;;;6.37;1.25;;;;;;;10.12;74.28;101256.06;5608600;31;33936;-71
2023/12/27 12:51:28;;;;;;;5.00;1.37;;;;;;;9.96;74.77;101260.16;5608390;31;34000;-71
2023/12/27 12:54:32;;;;;;;4.05;1.23;;;;;;;9.94;74.67;101255.94;5608269;31;34073;-71
2023/12/27 12:57:38;;;;;;;5.55;1.40;;;;;;;9.86;75.65;101254.03;5608448;31;34073;-71
2023/12/27 13:00:41;;;;;;;5.35;1.50;;;;;;;9.77;76.97;101246.94;5607614;31;34852;-71
2023/12/27 13:03:48;;;;;;;4.78;1.70;;;;;;;9.63;77.53;101233.28;5607563;31;35555;-71
2023/12/27 13:07:09;;;;;;;7.93;1.90;;;;;;;9.63;79.66;101227.97;5608478;31;34637;-72
2023/12/27 13:10:12;;;;;;;6.00;1.73;;;;;;;9.49;80.04;101229.22;5608174;31;34228;-71
2023/12/27 13:13:16;;;;;;;5.93;1.42;;;;;;;9.43;81.12;101221.84;5607694;31;34680;-72
2023/12/27 13:16:21;;;;;;;4.68;1.42;;;;;;;9.36;81.27;101223.37;5607659;31;34117;-71
2023/12/27 13:19:24;;;;;;;4.47;1.40;;;;;;;9.38;81.35;101230.22;5607926;31;35025;-71
2023/12/27 13:22:30;;;;;;;5.07;1.20;;;;;;;9.43;81.40;101229.78;5607332;31;34015;-71
2023/12/27 13:25:35;;;;;;;5.07;1.30;;;;;;;9.32;82.17;101237.88;5608162;31;34121;-71
2023/12/27 13:28:37;;;;;;;5.10;1.40;;;;;;;9.26;82.14;101235.75;5607169;31;34160;-70
2023/12/27 13:31:41;;;;;;;5.90;1.42;;;;;;;9.22;83.06;101235.22;5608318;31;35074;-71
2023/12/27 13:34:45;;;;;;;5.70;1.40;;;;;;;9.13;84.61;101239.53;5607147;31;33735;-71
2023/12/27 13:37:48;;;;;;;5.90;1.77;;;;;;;9.01;86.11;101234.47;5607816;31;33994;-70
2023/12/27 13:40:51;;;;;;;4.20;1.40;;;;;;;9.05;86.70;101235.91;5607323;31;34224;-71
2023/12/27 13:43:54;;;;;;;3.50;1.17;;;;;;;9.02;88.20;101236.16;5607667;31;34037;-71
2023/12/27 13:46:58;;;;;;;5.37;1.62;;;;;;;8.93;87.46;101234.34;5607104;31;34363;-71
2023/12/27 13:50:05;;;;;;;6.00;1.33;;;;;;;8.89;88.25;101239.06;5606827;31;34247;-71
2023/12/27 13:53:09;;;;;;;7.10;1.52;;;;;;;8.96;86.71;101239.34;5607282;31;34191;-72
2023/12/27 13:56:14;;;;;;;5.82;1.35;;;;;;;8.95;87.60;101240.34;5607319;31;33755;-70
2023/12/27 13:59:17;;;;;;;5.90;1.52;;;;;;;8.89;87.52;101243.53;5607522;31;33936;-72
2023/12/27 14:02:20;;;;;;;5.62;1.45;;;;;;;8.98;88.74;101238.25;5606905;31;34001;-70
2023/12/27 14:05:24;;;;;;;5.95;1.80;;;;;;;9.09;85.08;101237.31;5607361;31;34351;-71
2023/12/27 14:08:26;;;;;;;4.85;1.50;;;;;;;9.06;87.75;101245.50;5607326;31;34738;-71
2023/12/27 14:11:32;;;;;;;6.07;1.55;;;;;;;9.08;87.22;101240.91;5607190;31;34367;-71
2023/12/27 14:14:39;;;;;;;14.90;1.67;;;;;;;8.98;90.00;101240.06;5606352;31;34509;-71
2023/12/27 14:17:45;;;;;;;6.25;1.60;;;;;;;8.99;91.71;101239.09;5606633;31;35519;-71
2023/12/27 14:20:50;;;;;;;8.00;1.67;;;;;;;8.78;88.42;101243.63;5608390;31;33358;-71
2023/12/27 14:23:53;;;;;;;4.43;1.52;;;;;;;8.56;89.85;101242.03;5609900;31;34263;-71